Roosevelt Island, New York
Current Conditions -  °F | °C
As of 3:51 PM on Friday 28 Nov 2014 (Local Time) from KNYC Reporting Station
Clear Clear  
Wind Chill: 25°   Ceiling: Unl
Heat Index: 33°   Visibility: 10mi
Dew Point: 12°   Wind: 9mph
Humidity: 42%   Direction: 300°WNW
Pressure: 30.21"   Gusts: 20mph
Location:  40.7621°N, 73.9496°W
Report Text: KNYC 282051Z AUTO 30008G17KT 250V350 10SM CLR 01/M11 A3021 RMK AO2 SLP222 T00061111 53010 $
Loading
Personal Weather Stations






























Interactive Weather Map New forecast layout! Learn more

10-Day Weather Forecast

Advertisements
Track Severe Weather on mobile